sensor_id;sensor_type;location;lat;lon;timestamp;P1;durP1;ratioP1;P2;durP2;ratioP2
9661;SDS011;24982;52.344;12.990;2023-07-31T00:01:08;2.03;;;1.80;;
9661;SDS011;24982;52.344;12.990;2023-07-31T00:04:10;2.08;;;1.80;;
9661;SDS011;24982;52.344;12.990;2023-07-31T00:07:12;2.13;;;1.90;;
9661;SDS011;24982;52.344;12.990;2023-07-31T00:10:14;1.90;;;1.70;;
9661;SDS011;24982;52.344;12.990;2023-07-31T00:13:16;3.03;;;1.73;;
9661;SDS011;24982;52.344;12.990;2023-07-31T00:16:19;2.00;;;1.80;;
9661;SDS011;24982;52.344;12.990;2023-07-31T00:19:21;3.13;;;1.75;;
9661;SDS011;24982;52.344;12.990;2023-07-31T00:22:23;3.08;;;1.65;;
9661;SDS011;24982;52.344;12.990;2023-07-31T00:25:25;3.35;;;1.73;;
9661;SDS011;24982;52.344;12.990;2023-07-31T00:28:27;7.07;;;2.05;;
9661;SDS011;24982;52.344;12.990;2023-07-31T00:31:31;2.90;;;2.17;;
9661;SDS011;24982;52.344;12.990;2023-07-31T00:34:33;3.55;;;2.17;;
9661;SDS011;24982;52.344;12.990;2023-07-31T00:37:36;2.45;;;1.95;;
9661;SDS011;24982;52.344;12.990;2023-07-31T00:40:38;2.30;;;1.90;;
9661;SDS011;24982;52.344;12.990;2023-07-31T00:43:40;2.25;;;2.05;;
9661;SDS011;24982;52.344;12.990;2023-07-31T00:46:44;4.22;;;2.13;;
9661;SDS011;24982;52.344;12.990;2023-07-31T00:49:46;4.60;;;2.20;;
9661;SDS011;24982;52.344;12.990;2023-07-31T00:52:49;4.85;;;2.25;;
9661;SDS011;24982;52.344;12.990;2023-07-31T00:55:52;4.45;;;2.25;;
9661;SDS011;24982;52.344;12.990;2023-07-31T00:58:54;4.53;;;2.30;;
9661;SDS011;24982;52.344;12.990;2023-07-31T01:01:58;3.20;;;2.20;;
9661;SDS011;24982;52.344;12.990;2023-07-31T01:05:00;2.63;;;2.40;;
9661;SDS011;24982;52.344;12.990;2023-07-31T01:08:04;2.88;;;2.40;;
9661;SDS011;24982;52.344;12.990;2023-07-31T01:11:14;3.92;;;2.65;;
9661;SDS011;24982;52.344;12.990;2023-07-31T01:14:20;3.60;;;2.33;;
9661;SDS011;24982;52.344;12.990;2023-07-31T01:17:24;4.47;;;2.45;;
9661;SDS011;24982;52.344;12.990;2023-07-31T01:20:26;5.28;;;2.55;;
9661;SDS011;24982;52.344;12.990;2023-07-31T01:23:40;3.10;;;2.42;;
9661;SDS011;24982;52.344;12.990;2023-07-31T01:27:02;5.30;;;2.60;;
9661;SDS011;24982;52.344;12.990;2023-07-31T01:30:09;5.22;;;2.58;;
9661;SDS011;24982;52.344;12.990;2023-07-31T01:33:17;4.90;;;2.83;;
9661;SDS011;24982;52.344;12.990;2023-07-31T01:36:19;2.78;;;2.50;;
9661;SDS011;24982;52.344;12.990;2023-07-31T01:39:21;3.63;;;2.60;;
9661;SDS011;24982;52.344;12.990;2023-07-31T01:42:25;3.88;;;2.58;;
9661;SDS011;24982;52.344;12.990;2023-07-31T01:45:27;5.20;;;2.75;;
9661;SDS011;24982;52.344;12.990;2023-07-31T01:48:29;2.70;;;2.38;;
9661;SDS011;24982;52.344;12.990;2023-07-31T01:51:35;2.70;;;2.50;;
9661;SDS011;24982;52.344;12.990;2023-07-31T01:54:37;5.00;;;2.67;;
9661;SDS011;24982;52.344;12.990;2023-07-31T01:57:41;4.47;;;2.90;;
9661;SDS011;24982;52.344;12.990;2023-07-31T02:00:43;3.08;;;2.55;;
9661;SDS011;24982;52.344;12.990;2023-07-31T02:03:45;4.50;;;2.80;;
9661;SDS011;24982;52.344;12.990;2023-07-31T02:06:48;3.97;;;2.60;;
9661;SDS011;24982;52.344;12.990;2023-07-31T02:09:50;3.03;;;2.40;;
9661;SDS011;24982;52.344;12.990;2023-07-31T02:12:55;4.43;;;2.40;;
9661;SDS011;24982;52.344;12.990;2023-07-31T02:15:57;3.40;;;2.67;;
9661;SDS011;24982;52.344;12.990;2023-07-31T02:18:59;4.85;;;2.60;;
9661;SDS011;24982;52.344;12.990;2023-07-31T02:22:01;4.28;;;2.80;;
9661;SDS011;24982;52.344;12.990;2023-07-31T02:25:04;2.72;;;2.50;;
9661;SDS011;24982;52.344;12.990;2023-07-31T02:28:07;3.80;;;2.70;;
9661;SDS011;24982;52.344;12.990;2023-07-31T02:31:10;4.03;;;2.70;;
9661;SDS011;24982;52.344;12.990;2023-07-31T02:34:12;5.10;;;2.72;;
9661;SDS011;24982;52.344;12.990;2023-07-31T02:37:14;2.63;;;2.42;;
9661;SDS011;24982;52.344;12.990;2023-07-31T02:40:15;3.95;;;2.67;;
9661;SDS011;24982;52.344;12.990;2023-07-31T02:43:19;3.92;;;2.67;;
9661;SDS011;24982;52.344;12.990;2023-07-31T02:46:21;2.60;;;2.40;;
9661;SDS011;24982;52.344;12.990;2023-07-31T02:49:24;3.83;;;2.60;;
9661;SDS011;24982;52.344;12.990;2023-07-31T02:52:26;3.05;;;2.45;;
9661;SDS011;24982;52.344;12.990;2023-07-31T02:55:28;3.65;;;2.85;;
9661;SDS011;24982;52.344;12.990;2023-07-31T02:58:32;2.95;;;2.60;;
9661;SDS011;24982;52.344;12.990;2023-07-31T03:01:34;6.13;;;2.80;;
9661;SDS011;24982;52.344;12.990;2023-07-31T03:04:36;3.15;;;2.72;;
9661;SDS011;24982;52.344;12.990;2023-07-31T03:07:38;2.80;;;2.55;;
9661;SDS011;24982;52.344;12.990;2023-07-31T03:10:40;5.20;;;3.05;;
9661;SDS011;24982;52.344;12.990;2023-07-31T03:13:44;3.63;;;2.85;;
9661;SDS011;24982;52.344;12.990;2023-07-31T03:16:46;3.53;;;2.75;;
9661;SDS011;24982;52.344;12.990;2023-07-31T03:19:48;3.67;;;2.78;;
9661;SDS011;24982;52.344;12.990;2023-07-31T03:22:50;5.40;;;2.65;;
9661;SDS011;24982;52.344;12.990;2023-07-31T03:25:55;5.90;;;3.00;;
9661;SDS011;24982;52.344;12.990;2023-07-31T03:29:03;6.75;;;2.80;;
9661;SDS011;24982;52.344;12.990;2023-07-31T03:32:05;5.30;;;2.63;;
9661;SDS011;24982;52.344;12.990;2023-07-31T03:35:07;5.07;;;2.60;;
9661;SDS011;24982;52.344;12.990;2023-07-31T03:38:09;3.65;;;2.90;;
9661;SDS011;24982;52.344;12.990;2023-07-31T03:41:11;2.92;;;2.55;;
9661;SDS011;24982;52.344;12.990;2023-07-31T03:44:15;3.05;;;2.83;;
9661;SDS011;24982;52.344;12.990;2023-07-31T03:47:17;5.32;;;2.40;;
9661;SDS011;24982;52.344;12.990;2023-07-31T03:50:18;6.00;;;2.70;;
9661;SDS011;24982;52.344;12.990;2023-07-31T03:53:20;5.20;;;2.80;;
9661;SDS011;24982;52.344;12.990;2023-07-31T03:56:22;3.05;;;2.67;;
9661;SDS011;24982;52.344;12.990;2023-07-31T03:59:26;3.97;;;2.80;;
9661;SDS011;24982;52.344;12.990;2023-07-31T04:02:28;4.05;;;2.72;;
9661;SDS011;24982;52.344;12.990;2023-07-31T04:05:30;4.35;;;2.97;;
9661;SDS011;24982;52.344;12.990;2023-07-31T04:08:32;5.65;;;3.00;;
9661;SDS011;24982;52.344;12.990;2023-07-31T04:11:34;3.42;;;2.67;;
9661;SDS011;24982;52.344;12.990;2023-07-31T04:14:37;4.05;;;2.85;;
9661;SDS011;24982;52.344;12.990;2023-07-31T04:17:39;8.15;;;3.40;;
9661;SDS011;24982;52.344;12.990;2023-07-31T04:20:41;4.45;;;2.72;;
9661;SDS011;24982;52.344;12.990;2023-07-31T04:23:43;6.13;;;2.92;;
9661;SDS011;24982;52.344;12.990;2023-07-31T04:26:45;3.03;;;2.63;;
9661;SDS011;24982;52.344;12.990;2023-07-31T04:29:48;3.00;;;2.70;;
9661;SDS011;24982;52.344;12.990;2023-07-31T04:32:51;3.67;;;2.60;;
9661;SDS011;24982;52.344;12.990;2023-07-31T04:35:53;6.57;;;2.70;;
9661;SDS011;24982;52.344;12.990;2023-07-31T04:38:55;3.80;;;2.40;;
9661;SDS011;24982;52.344;12.990;2023-07-31T04:41:57;3.50;;;2.90;;
9661;SDS011;24982;52.344;12.990;2023-07-31T04:45:00;6.85;;;2.88;;
9661;SDS011;24982;52.344;12.990;2023-07-31T04:48:03;2.60;;;2.40;;
9661;SDS011;24982;52.344;12.990;2023-07-31T04:51:05;4.63;;;2.40;;
9661;SDS011;24982;52.344;12.990;2023-07-31T04:54:07;3.95;;;2.72;;
9661;SDS011;24982;52.344;12.990;2023-07-31T04:57:09;4.18;;;2.78;;
9661;SDS011;24982;52.344;12.990;2023-07-31T05:00:12;4.00;;;2.47;;
9661;SDS011;24982;52.344;12.990;2023-07-31T05:03:14;3.83;;;2.83;;
9661;SDS011;24982;52.344;12.990;2023-07-31T05:06:16;5.20;;;2.60;;
9661;SDS011;24982;52.344;12.990;2023-07-31T05:09:20;4.85;;;2.70;;
9661;SDS011;24982;52.344;12.990;2023-07-31T05:12:22;3.33;;;2.42;;
9661;SDS011;24982;52.344;12.990;2023-07-31T05:15:25;5.28;;;2.90;;
9661;SDS011;24982;52.344;12.990;2023-07-31T05:18:27;2.95;;;2.13;;
9661;SDS011;24982;52.344;12.990;2023-07-31T05:21:29;4.68;;;2.60;;
9661;SDS011;24982;52.344;12.990;2023-07-31T05:24:31;5.68;;;2.55;;
9661;SDS011;24982;52.344;12.990;2023-07-31T05:27:33;4.13;;;2.78;;
9661;SDS011;24982;52.344;12.990;2023-07-31T05:30:37;3.85;;;2.15;;
9661;SDS011;24982;52.344;12.990;2023-07-31T05:33:39;4.18;;;2.30;;
9661;SDS011;24982;52.344;12.990;2023-07-31T05:36:41;2.10;;;2.00;;
9661;SDS011;24982;52.344;12.990;2023-07-31T05:39:43;4.75;;;2.28;;
9661;SDS011;24982;52.344;12.990;2023-07-31T05:42:45;2.40;;;1.95;;
9661;SDS011;24982;52.344;12.990;2023-07-31T05:45:48;4.13;;;2.38;;
9661;SDS011;24982;52.344;12.990;2023-07-31T05:48:50;2.22;;;2.00;;
9661;SDS011;24982;52.344;12.990;2023-07-31T05:51:52;4.30;;;2.15;;
9661;SDS011;24982;52.344;12.990;2023-07-31T05:54:54;3.10;;;2.10;;
9661;SDS011;24982;52.344;12.990;2023-07-31T05:57:56;3.38;;;2.33;;
9661;SDS011;24982;52.344;12.990;2023-07-31T06:00:59;5.63;;;2.10;;
9661;SDS011;24982;52.344;12.990;2023-07-31T06:04:01;3.17;;;2.10;;
9661;SDS011;24982;52.344;12.990;2023-07-31T06:07:03;6.55;;;2.60;;
9661;SDS011;24982;52.344;12.990;2023-07-31T06:10:06;3.67;;;2.30;;
9661;SDS011;24982;52.344;12.990;2023-07-31T06:13:09;3.80;;;2.38;;
9661;SDS011;24982;52.344;12.990;2023-07-31T06:16:12;3.88;;;2.30;;
9661;SDS011;24982;52.344;12.990;2023-07-31T06:19:15;3.17;;;2.60;;
9661;SDS011;24982;52.344;12.990;2023-07-31T06:22:17;6.22;;;2.45;;
9661;SDS011;24982;52.344;12.990;2023-07-31T06:25:19;4.32;;;2.30;;
9661;SDS011;24982;52.344;12.990;2023-07-31T06:28:21;4.22;;;2.50;;
9661;SDS011;24982;52.344;12.990;2023-07-31T06:31:29;2.63;;;2.25;;
9661;SDS011;24982;52.344;12.990;2023-07-31T06:34:31;4.63;;;2.50;;
9661;SDS011;24982;52.344;12.990;2023-07-31T06:37:33;3.30;;;2.50;;
9661;SDS011;24982;52.344;12.990;2023-07-31T06:40:35;3.67;;;2.40;;
9661;SDS011;24982;52.344;12.990;2023-07-31T06:43:37;5.43;;;2.55;;
9661;SDS011;24982;52.344;12.990;2023-07-31T06:46:40;3.90;;;2.40;;
9661;SDS011;24982;52.344;12.990;2023-07-31T06:49:43;3.20;;;2.33;;
9661;SDS011;24982;52.344;12.990;2023-07-31T06:52:45;4.57;;;2.25;;
9661;SDS011;24982;52.344;12.990;2023-07-31T06:55:47;4.82;;;2.88;;
9661;SDS011;24982;52.344;12.990;2023-07-31T06:58:51;5.47;;;2.40;;
9661;SDS011;24982;52.344;12.990;2023-07-31T07:01:55;3.60;;;2.50;;
9661;SDS011;24982;52.344;12.990;2023-07-31T07:04:57;4.75;;;2.50;;
9661;SDS011;24982;52.344;12.990;2023-07-31T07:07:59;3.38;;;2.38;;
9661;SDS011;24982;52.344;12.990;2023-07-31T07:11:01;3.25;;;2.47;;
9661;SDS011;24982;52.344;12.990;2023-07-31T07:14:03;4.63;;;2.30;;
9661;SDS011;24982;52.344;12.990;2023-07-31T07:17:06;4.60;;;2.90;;
9661;SDS011;24982;52.344;12.990;2023-07-31T07:20:08;4.25;;;2.38;;
9661;SDS011;24982;52.344;12.990;2023-07-31T07:23:10;2.80;;;2.53;;
9661;SDS011;24982;52.344;12.990;2023-07-31T07:26:12;4.78;;;2.80;;
9661;SDS011;24982;52.344;12.990;2023-07-31T07:29:14;2.50;;;2.30;;
9661;SDS011;24982;52.344;12.990;2023-07-31T07:32:18;4.32;;;2.60;;
9661;SDS011;24982;52.344;12.990;2023-07-31T07:35:20;3.42;;;2.70;;
9661;SDS011;24982;52.344;12.990;2023-07-31T07:38:22;4.15;;;2.58;;
9661;SDS011;24982;52.344;12.990;2023-07-31T07:41:24;2.97;;;2.75;;
9661;SDS011;24982;52.344;12.990;2023-07-31T07:44:26;3.40;;;2.63;;
9661;SDS011;24982;52.344;12.990;2023-07-31T07:47:29;7.97;;;2.90;;
9661;SDS011;24982;52.344;12.990;2023-07-31T07:50:31;6.15;;;2.40;;
9661;SDS011;24982;52.344;12.990;2023-07-31T07:53:33;2.95;;;2.40;;
9661;SDS011;24982;52.344;12.990;2023-07-31T07:56:35;5.15;;;2.67;;
9661;SDS011;24982;52.344;12.990;2023-07-31T07:59:37;3.58;;;2.20;;
9661;SDS011;24982;52.344;12.990;2023-07-31T08:02:40;3.25;;;2.50;;
9661;SDS011;24982;52.344;12.990;2023-07-31T08:05:43;4.15;;;2.58;;
9661;SDS011;24982;52.344;12.990;2023-07-31T08:08:46;2.40;;;2.20;;
9661;SDS011;24982;52.344;12.990;2023-07-31T08:11:48;2.83;;;2.28;;
9661;SDS011;24982;52.344;12.990;2023-07-31T08:14:49;3.38;;;2.25;;
9661;SDS011;24982;52.344;12.990;2023-07-31T08:17:53;2.28;;;2.08;;
9661;SDS011;24982;52.344;12.990;2023-07-31T08:20:55;2.88;;;2.10;;
9661;SDS011;24982;52.344;12.990;2023-07-31T08:23:57;2.60;;;2.00;;
9661;SDS011;24982;52.344;12.990;2023-07-31T08:26:59;2.28;;;2.10;;
9661;SDS011;24982;52.344;12.990;2023-07-31T08:30:01;2.10;;;1.90;;
9661;SDS011;24982;52.344;12.990;2023-07-31T08:33:05;2.17;;;1.75;;
9661;SDS011;24982;52.344;12.990;2023-07-31T08:36:07;1.38;;;1.27;;
9661;SDS011;24982;52.344;12.990;2023-07-31T08:39:09;1.00;;;1.00;;
9661;SDS011;24982;52.344;12.990;2023-07-31T08:42:11;1.23;;;1.23;;
9661;SDS011;24982;52.344;12.990;2023-07-31T08:45:14;1.17;;;1.17;;
9661;SDS011;24982;52.344;12.990;2023-07-31T08:48:18;1.95;;;1.30;;
9661;SDS011;24982;52.344;12.990;2023-07-31T08:51:22;2.33;;;1.40;;
9661;SDS011;24982;52.344;12.990;2023-07-31T08:54:23;1.35;;;1.02;;
9661;SDS011;24982;52.344;12.990;2023-07-31T08:57:29;1.45;;;1.30;;
9661;SDS011;24982;52.344;12.990;2023-07-31T09:00:33;1.00;;;1.00;;
9661;SDS011;24982;52.344;12.990;2023-07-31T09:03:36;3.47;;;1.10;;
9661;SDS011;24982;52.344;12.990;2023-07-31T09:06:40;1.15;;;1.10;;
9661;SDS011;24982;52.344;12.990;2023-07-31T09:09:43;1.50;;;1.33;;
9661;SDS011;24982;52.344;12.990;2023-07-31T09:12:47;1.48;;;1.38;;
9661;SDS011;24982;52.344;12.990;2023-07-31T09:15:50;1.88;;;1.77;;
9661;SDS011;24982;52.344;12.990;2023-07-31T09:18:54;2.53;;;2.33;;
9661;SDS011;24982;52.344;12.990;2023-07-31T09:21:57;2.38;;;2.28;;
9661;SDS011;24982;52.344;12.990;2023-07-31T09:25:04;3.50;;;2.50;;
9661;SDS011;24982;52.344;12.990;2023-07-31T09:28:16;3.10;;;2.80;;
9661;SDS011;24982;52.344;12.990;2023-07-31T09:31:21;2.63;;;2.50;;
9661;SDS011;24982;52.344;12.990;2023-07-31T09:34:37;3.30;;;3.00;;
9661;SDS011;24982;52.344;12.990;2023-07-31T09:37:40;3.92;;;3.10;;
9661;SDS011;24982;52.344;12.990;2023-07-31T09:40:42;4.70;;;3.25;;
9661;SDS011;24982;52.344;12.990;2023-07-31T09:43:45;4.05;;;3.53;;
9661;SDS011;24982;52.344;12.990;2023-07-31T09:46:54;5.22;;;3.22;;
9661;SDS011;24982;52.344;12.990;2023-07-31T09:49:58;4.00;;;3.60;;
9661;SDS011;24982;52.344;12.990;2023-07-31T09:53:00;4.05;;;3.30;;
9661;SDS011;24982;52.344;12.990;2023-07-31T09:56:02;4.10;;;3.33;;
9661;SDS011;24982;52.344;12.990;2023-07-31T09:59:04;6.55;;;3.38;;
9661;SDS011;24982;52.344;12.990;2023-07-31T10:05:12;9.77;;;3.47;;
9661;SDS011;24982;52.344;12.990;2023-07-31T10:08:16;3.70;;;3.40;;
9661;SDS011;24982;52.344;12.990;2023-07-31T10:11:21;6.47;;;3.67;;
9661;SDS011;24982;52.344;12.990;2023-07-31T10:14:26;6.40;;;4.07;;
9661;SDS011;24982;52.344;12.990;2023-07-31T10:17:29;7.15;;;3.92;;
9661;SDS011;24982;52.344;12.990;2023-07-31T10:20:33;5.30;;;3.83;;
9661;SDS011;24982;52.344;12.990;2023-07-31T10:23:36;7.50;;;4.30;;
9661;SDS011;24982;52.344;12.990;2023-07-31T10:26:40;5.90;;;3.85;;
9661;SDS011;24982;52.344;12.990;2023-07-31T10:29:44;9.05;;;4.40;;
9661;SDS011;24982;52.344;12.990;2023-07-31T10:32:48;7.38;;;4.18;;
9661;SDS011;24982;52.344;12.990;2023-07-31T10:36:06;6.32;;;3.97;;
9661;SDS011;24982;52.344;12.990;2023-07-31T10:42:35;4.50;;;3.58;;
9661;SDS011;24982;52.344;12.990;2023-07-31T10:45:40;4.38;;;3.30;;
9661;SDS011;24982;52.344;12.990;2023-07-31T10:48:44;4.00;;;3.22;;
9661;SDS011;24982;52.344;12.990;2023-07-31T10:51:47;3.28;;;2.97;;
9661;SDS011;24982;52.344;12.990;2023-07-31T10:54:49;5.88;;;3.40;;
9661;SDS011;24982;52.344;12.990;2023-07-31T10:57:51;4.70;;;3.22;;
9661;SDS011;24982;52.344;12.990;2023-07-31T11:00:55;3.83;;;3.45;;
9661;SDS011;24982;52.344;12.990;2023-07-31T11:03:57;3.30;;;3.00;;
9661;SDS011;24982;52.344;12.990;2023-07-31T11:07:02;4.32;;;3.40;;
9661;SDS011;24982;52.344;12.990;2023-07-31T11:10:08;4.15;;;3.42;;
9661;SDS011;24982;52.344;12.990;2023-07-31T11:13:10;9.43;;;3.55;;
9661;SDS011;24982;52.344;12.990;2023-07-31T11:16:13;4.10;;;3.00;;
9661;SDS011;24982;52.344;12.990;2023-07-31T11:19:20;4.70;;;3.15;;
9661;SDS011;24982;52.344;12.990;2023-07-31T11:22:24;5.57;;;3.70;;
9661;SDS011;24982;52.344;12.990;2023-07-31T11:25:26;6.55;;;3.85;;
9661;SDS011;24982;52.344;12.990;2023-07-31T11:28:31;3.35;;;2.90;;
9661;SDS011;24982;52.344;12.990;2023-07-31T11:31:34;5.80;;;3.10;;
9661;SDS011;24982;52.344;12.990;2023-07-31T11:34:50;4.88;;;3.22;;
9661;SDS011;24982;52.344;12.990;2023-07-31T11:37:54;4.43;;;3.13;;
9661;SDS011;24982;52.344;12.990;2023-07-31T11:40:57;5.72;;;3.30;;
9661;SDS011;24982;52.344;12.990;2023-07-31T11:43:59;4.57;;;3.40;;
9661;SDS011;24982;52.344;12.990;2023-07-31T11:47:02;3.17;;;2.88;;
9661;SDS011;24982;52.344;12.990;2023-07-31T11:50:06;3.58;;;3.03;;
9661;SDS011;24982;52.344;12.990;2023-07-31T11:53:14;3.35;;;3.00;;
9661;SDS011;24982;52.344;12.990;2023-07-31T11:56:19;4.18;;;3.13;;
9661;SDS011;24982;52.344;12.990;2023-07-31T11:59:22;5.35;;;2.85;;
9661;SDS011;24982;52.344;12.990;2023-07-31T12:02:24;6.05;;;3.38;;
9661;SDS011;24982;52.344;12.990;2023-07-31T12:05:26;5.13;;;3.17;;
9661;SDS011;24982;52.344;12.990;2023-07-31T12:08:30;4.30;;;3.00;;
9661;SDS011;24982;52.344;12.990;2023-07-31T12:11:42;3.17;;;2.80;;
9661;SDS011;24982;52.344;12.990;2023-07-31T12:14:44;5.28;;;3.08;;
9661;SDS011;24982;52.344;12.990;2023-07-31T12:17:46;3.55;;;2.78;;
9661;SDS011;24982;52.344;12.990;2023-07-31T12:20:49;3.83;;;3.10;;
9661;SDS011;24982;52.344;12.990;2023-07-31T12:23:57;4.05;;;2.65;;
9661;SDS011;24982;52.344;12.990;2023-07-31T12:26:59;4.53;;;2.30;;
9661;SDS011;24982;52.344;12.990;2023-07-31T12:30:01;3.13;;;2.33;;
9661;SDS011;24982;52.344;12.990;2023-07-31T12:33:03;5.85;;;2.55;;
9661;SDS011;24982;52.344;12.990;2023-07-31T12:36:07;3.58;;;2.42;;
9661;SDS011;24982;52.344;12.990;2023-07-31T12:39:12;2.75;;;2.30;;
9661;SDS011;24982;52.344;12.990;2023-07-31T12:42:14;4.60;;;2.58;;
9661;SDS011;24982;52.344;12.990;2023-07-31T12:45:18;2.78;;;2.55;;
9661;SDS011;24982;52.344;12.990;2023-07-31T12:48:21;3.80;;;2.92;;
9661;SDS011;24982;52.344;12.990;2023-07-31T12:51:23;3.90;;;2.67;;
9661;SDS011;24982;52.344;12.990;2023-07-31T12:54:27;4.47;;;2.55;;
9661;SDS011;24982;52.344;12.990;2023-07-31T12:57:29;2.88;;;2.58;;
9661;SDS011;24982;52.344;12.990;2023-07-31T13:00:31;4.30;;;2.90;;
9661;SDS011;24982;52.344;12.990;2023-07-31T13:03:33;3.75;;;2.80;;
9661;SDS011;24982;52.344;12.990;2023-07-31T13:06:35;5.35;;;3.05;;
9661;SDS011;24982;52.344;12.990;2023-07-31T13:09:39;3.63;;;3.17;;
9661;SDS011;24982;52.344;12.990;2023-07-31T13:12:41;5.47;;;3.00;;
9661;SDS011;24982;52.344;12.990;2023-07-31T13:15:43;4.32;;;2.83;;
9661;SDS011;24982;52.344;12.990;2023-07-31T13:18:45;4.53;;;3.05;;
9661;SDS011;24982;52.344;12.990;2023-07-31T13:21:47;4.90;;;3.08;;
9661;SDS011;24982;52.344;12.990;2023-07-31T13:24:52;3.50;;;3.15;;
9661;SDS011;24982;52.344;12.990;2023-07-31T13:27:54;5.03;;;3.03;;
9661;SDS011;24982;52.344;12.990;2023-07-31T13:30:56;3.47;;;3.15;;
9661;SDS011;24982;52.344;12.990;2023-07-31T13:33:58;4.38;;;2.95;;
9661;SDS011;24982;52.344;12.990;2023-07-31T13:37:00;3.55;;;3.00;;
9661;SDS011;24982;52.344;12.990;2023-07-31T13:40:04;5.68;;;3.20;;
9661;SDS011;24982;52.344;12.990;2023-07-31T13:43:07;3.83;;;2.70;;
9661;SDS011;24982;52.344;12.990;2023-07-31T13:46:09;4.63;;;2.90;;
9661;SDS011;24982;52.344;12.990;2023-07-31T13:49:11;5.05;;;3.08;;
9661;SDS011;24982;52.344;12.990;2023-07-31T13:52:13;3.30;;;2.80;;
9661;SDS011;24982;52.344;12.990;2023-07-31T13:55:17;3.72;;;3.33;;
9661;SDS011;24982;52.344;12.990;2023-07-31T13:58:20;6.65;;;3.10;;
9661;SDS011;24982;52.344;12.990;2023-07-31T14:01:22;3.20;;;2.88;;
9661;SDS011;24982;52.344;12.990;2023-07-31T14:04:24;4.55;;;3.10;;
9661;SDS011;24982;52.344;12.990;2023-07-31T14:07:26;4.45;;;2.88;;
9661;SDS011;24982;52.344;12.990;2023-07-31T14:10:29;3.10;;;2.80;;
9661;SDS011;24982;52.344;12.990;2023-07-31T14:13:31;4.30;;;2.97;;
9661;SDS011;24982;52.344;12.990;2023-07-31T14:16:33;4.53;;;2.70;;
9661;SDS011;24982;52.344;12.990;2023-07-31T14:19:35;3.20;;;2.85;;
9661;SDS011;24982;52.344;12.990;2023-07-31T14:22:37;3.65;;;2.90;;
9661;SDS011;24982;52.344;12.990;2023-07-31T14:25:40;4.13;;;3.20;;
9661;SDS011;24982;52.344;12.990;2023-07-31T14:28:43;3.97;;;2.95;;
9661;SDS011;24982;52.344;12.990;2023-07-31T14:31:44;3.30;;;3.00;;
9661;SDS011;24982;52.344;12.990;2023-07-31T14:34:46;4.68;;;2.90;;
9661;SDS011;24982;52.344;12.990;2023-07-31T14:37:48;4.10;;;3.00;;
9661;SDS011;24982;52.344;12.990;2023-07-31T14:40:52;3.28;;;2.90;;
9661;SDS011;24982;52.344;12.990;2023-07-31T14:43:54;3.65;;;3.13;;
9661;SDS011;24982;52.344;12.990;2023-07-31T14:46:56;4.30;;;3.15;;
9661;SDS011;24982;52.344;12.990;2023-07-31T14:49:58;3.80;;;3.47;;
9661;SDS011;24982;52.344;12.990;2023-07-31T14:53:00;3.10;;;2.90;;
9661;SDS011;24982;52.344;12.990;2023-07-31T14:56:04;4.45;;;3.42;;
9661;SDS011;24982;52.344;12.990;2023-07-31T14:59:06;4.93;;;3.20;;
9661;SDS011;24982;52.344;12.990;2023-07-31T15:02:10;4.18;;;2.97;;
9661;SDS011;24982;52.344;12.990;2023-07-31T15:05:12;4.53;;;3.47;;
9661;SDS011;24982;52.344;12.990;2023-07-31T15:08:14;7.95;;;3.40;;
9661;SDS011;24982;52.344;12.990;2023-07-31T15:11:17;6.03;;;3.00;;
9661;SDS011;24982;52.344;12.990;2023-07-31T15:14:19;3.97;;;3.00;;
9661;SDS011;24982;52.344;12.990;2023-07-31T15:17:21;3.90;;;3.47;;
9661;SDS011;24982;52.344;12.990;2023-07-31T15:20:24;4.78;;;3.53;;
9661;SDS011;24982;52.344;12.990;2023-07-31T15:23:26;5.53;;;3.20;;
9661;SDS011;24982;52.344;12.990;2023-07-31T15:26:29;3.65;;;3.33;;
9661;SDS011;24982;52.344;12.990;2023-07-31T15:29:31;3.80;;;3.47;;
9661;SDS011;24982;52.344;12.990;2023-07-31T15:32:37;4.13;;;3.35;;
9661;SDS011;24982;52.344;12.990;2023-07-31T15:35:39;4.75;;;3.45;;
9661;SDS011;24982;52.344;12.990;2023-07-31T15:38:43;4.40;;;3.05;;
9661;SDS011;24982;52.344;12.990;2023-07-31T15:41:47;4.65;;;3.63;;
9661;SDS011;24982;52.344;12.990;2023-07-31T15:44:49;3.28;;;2.97;;
9661;SDS011;24982;52.344;12.990;2023-07-31T15:47:51;6.18;;;3.15;;
9661;SDS011;24982;52.344;12.990;2023-07-31T15:50:53;4.60;;;2.88;;
9661;SDS011;24982;52.344;12.990;2023-07-31T15:53:55;5.75;;;3.10;;
9661;SDS011;24982;52.344;12.990;2023-07-31T15:56:58;3.20;;;2.88;;
9661;SDS011;24982;52.344;12.990;2023-07-31T16:00:00;4.32;;;3.50;;
9661;SDS011;24982;52.344;12.990;2023-07-31T16:03:07;4.90;;;3.03;;
9661;SDS011;24982;52.344;12.990;2023-07-31T16:06:09;2.47;;;2.28;;
9661;SDS011;24982;52.344;12.990;2023-07-31T16:09:11;3.75;;;2.78;;
9661;SDS011;24982;52.344;12.990;2023-07-31T16:12:15;2.55;;;2.35;;
9661;SDS011;24982;52.344;12.990;2023-07-31T16:15:16;3.08;;;2.58;;
9661;SDS011;24982;52.344;12.990;2023-07-31T16:18:19;4.55;;;2.83;;
9661;SDS011;24982;52.344;12.990;2023-07-31T16:21:20;3.80;;;2.95;;
9661;SDS011;24982;52.344;12.990;2023-07-31T16:24:22;4.05;;;2.60;;
9661;SDS011;24982;52.344;12.990;2023-07-31T16:27:26;4.47;;;2.40;;
9661;SDS011;24982;52.344;12.990;2023-07-31T16:30:28;2.63;;;2.20;;
9661;SDS011;24982;52.344;12.990;2023-07-31T16:33:30;2.50;;;2.30;;
9661;SDS011;24982;52.344;12.990;2023-07-31T16:36:33;2.30;;;2.20;;
9661;SDS011;24982;52.344;12.990;2023-07-31T16:39:35;4.28;;;2.40;;
9661;SDS011;24982;52.344;12.990;2023-07-31T16:42:39;2.97;;;2.60;;
9661;SDS011;24982;52.344;12.990;2023-07-31T16:45:41;2.75;;;2.55;;
9661;SDS011;24982;52.344;12.990;2023-07-31T16:48:43;3.63;;;2.45;;
9661;SDS011;24982;52.344;12.990;2023-07-31T16:51:46;2.97;;;2.10;;
9661;SDS011;24982;52.344;12.990;2023-07-31T16:54:48;2.42;;;2.00;;
9661;SDS011;24982;52.344;12.990;2023-07-31T16:57:53;2.75;;;2.00;;
9661;SDS011;24982;52.344;12.990;2023-07-31T17:00:56;2.55;;;1.98;;
9661;SDS011;24982;52.344;12.990;2023-07-31T17:03:59;2.20;;;2.00;;
9661;SDS011;24982;52.344;12.990;2023-07-31T17:07:01;2.72;;;2.10;;
9661;SDS011;24982;52.344;12.990;2023-07-31T17:10:04;2.25;;;2.05;;
9661;SDS011;24982;52.344;12.990;2023-07-31T17:13:08;2.28;;;2.08;;
9661;SDS011;24982;52.344;12.990;2023-07-31T17:16:10;2.38;;;1.98;;
9661;SDS011;24982;52.344;12.990;2023-07-31T17:19:12;2.08;;;1.80;;
9661;SDS011;24982;52.344;12.990;2023-07-31T17:22:15;1.92;;;1.83;;
9661;SDS011;24982;52.344;12.990;2023-07-31T17:25:17;2.47;;;1.92;;
9661;SDS011;24982;52.344;12.990;2023-07-31T17:28:21;2.20;;;2.00;;
9661;SDS011;24982;52.344;12.990;2023-07-31T17:31:23;2.10;;;2.00;;
9661;SDS011;24982;52.344;12.990;2023-07-31T17:34:26;2.05;;;1.95;;
9661;SDS011;24982;52.344;12.990;2023-07-31T17:37:28;2.55;;;2.03;;
9661;SDS011;24982;52.344;12.990;2023-07-31T17:40:30;2.20;;;1.95;;
9661;SDS011;24982;52.344;12.990;2023-07-31T17:43:33;2.25;;;2.10;;
9661;SDS011;24982;52.344;12.990;2023-07-31T17:46:35;3.17;;;2.10;;
9661;SDS011;24982;52.344;12.990;2023-07-31T17:49:38;3.60;;;2.45;;
9661;SDS011;24982;52.344;12.990;2023-07-31T17:52:40;2.30;;;2.10;;
9661;SDS011;24982;52.344;12.990;2023-07-31T17:55:41;2.30;;;2.10;;
9661;SDS011;24982;52.344;12.990;2023-07-31T17:58:45;4.30;;;2.50;;
9661;SDS011;24982;52.344;12.990;2023-07-31T18:01:47;3.35;;;2.05;;
9661;SDS011;24982;52.344;12.990;2023-07-31T18:04:49;2.92;;;2.13;;
9661;SDS011;24982;52.344;12.990;2023-07-31T18:07:51;4.03;;;2.65;;
9661;SDS011;24982;52.344;12.990;2023-07-31T18:15:18;2.75;;;2.53;;
9661;SDS011;24982;52.344;12.990;2023-07-31T18:22:43;3.75;;;2.25;;
9661;SDS011;24982;52.344;12.990;2023-07-31T18:25:46;3.10;;;2.55;;
9661;SDS011;24982;52.344;12.990;2023-07-31T18:28:48;5.03;;;2.70;;
9661;SDS011;24982;52.344;12.990;2023-07-31T18:31:52;2.95;;;2.58;;
9661;SDS011;24982;52.344;12.990;2023-07-31T18:34:54;2.92;;;2.63;;
9661;SDS011;24982;52.344;12.990;2023-07-31T18:37:56;2.55;;;2.35;;